createdAt,value
2019-01-19T00:02:34.470Z,95501.19
2019-01-19T00:11:50.320Z,95503.33
2019-01-19T00:18:06.520Z,95515.52
2019-01-19T00:21:07.944Z,95508.82
2019-01-19T00:24:15.850Z,95514.61
2019-01-19T00:27:11.707Z,95507.88
2019-01-19T00:30:19.495Z,95507.52
2019-01-19T00:36:22.841Z,95516.64
2019-01-19T00:45:29.791Z,95538.40
2019-01-19T00:48:38.614Z,95516.51
2019-01-19T00:51:46.489Z,95527.39
2019-01-19T00:54:25.193Z,95532.13
2019-01-19T00:59:56.635Z,95528.48
2019-01-19T01:05:42.024Z,95531.14
2019-01-19T01:08:49.813Z,95526.22
2019-01-19T01:14:45.418Z,95535.53
2019-01-19T01:20:41.921Z,95534.05
2019-01-19T01:26:32.929Z,95543.62
2019-01-19T01:32:13.172Z,95539.50
2019-01-19T01:35:20.991Z,95545.48
2019-01-19T01:38:38.311Z,95541.25
2019-01-19T01:47:51.347Z,95527.79
2019-01-19T01:56:46.064Z,95529.59
2019-01-19T01:59:54.052Z,95514.69
2019-01-19T02:06:04.510Z,95517.55
2019-01-19T02:08:57.455Z,95516.89
2019-01-19T02:18:02.942Z,95522.48
2019-01-19T02:20:55.396Z,95522.28
2019-01-19T02:24:03.294Z,95515.48
2019-01-19T02:27:11.174Z,95524.93
2019-01-19T02:36:43.009Z,95515.84
2019-01-19T02:42:30.482Z,95506.07
2019-01-19T02:51:32.254Z,95503.52
2019-01-19T02:54:39.960Z,95503.28
2019-01-19T02:58:08.497Z,95500.25
2019-01-19T03:01:13.221Z,95498.95
2019-01-19T03:10:41.508Z,95493.64
2019-01-19T03:13:56.332Z,95493.22
2019-01-19T03:17:09.707Z,95490.45
2019-01-19T03:23:48.770Z,95487.27
2019-01-19T03:30:06.644Z,95492.82
2019-01-19T03:33:01.457Z,95495.39
2019-01-19T03:39:21.003Z,95499.39
2019-01-19T03:45:40.273Z,95503.59
2019-01-19T03:48:41.525Z,95511.55
2019-01-19T03:51:49.286Z,95496.95
2019-01-19T03:58:13.446Z,95492.34
2019-01-19T04:01:06.886Z,95492.72
2019-01-19T04:04:01.471Z,95489.97
2019-01-19T04:06:59.609Z,95458.73
2019-01-19T04:09:53.839Z,95493.64
2019-01-19T04:16:11.136Z,95490.95
2019-01-19T04:19:05.447Z,95485.89
2019-01-19T04:24:48.128Z,95498.69
2019-01-19T04:29:54.500Z,95498.41
2019-01-19T04:32:24.882Z,95498.48
2019-01-19T04:34:55.147Z,95488.52
2019-01-19T04:37:25.312Z,95495.77
2019-01-19T04:39:55.575Z,95491.11
2019-01-19T04:42:26.109Z,95493.75
2019-01-19T04:44:56.346Z,95489.23
2019-01-19T04:47:26.523Z,95495.36
2019-01-19T04:49:56.791Z,95490.47
2019-01-19T04:52:27.017Z,95495.92
2019-01-19T04:54:57.309Z,95495.28
2019-01-19T04:57:27.585Z,95500.67
2019-01-19T04:59:57.745Z,95503.03
2019-01-19T05:02:27.930Z,95508.70
2019-01-19T05:04:58.203Z,95507.92
2019-01-19T05:07:28.472Z,95506.21
2019-01-19T05:09:58.647Z,95513.00
2019-01-19T05:12:28.813Z,95514.39
2019-01-19T05:14:59.075Z,95514.26
2019-01-19T05:17:29.361Z,95517.99
2019-01-19T05:19:59.533Z,95514.96
2019-01-19T05:22:29.722Z,95514.09
2019-01-19T05:24:59.980Z,95517.97
2019-01-19T05:27:30.240Z,95511.86
2019-01-19T05:32:36.813Z,95521.67
2019-01-19T05:35:07.217Z,95519.92
2019-01-19T05:40:36.624Z,95523.83
2019-01-19T05:43:06.902Z,95520.41
2019-01-19T05:45:37.064Z,95523.56
2019-01-19T05:48:07.248Z,95530.14
2019-01-19T05:50:37.533Z,95523.08
2019-01-19T05:53:07.895Z,95529.33
2019-01-19T05:55:38.102Z,95526.31
2019-01-19T05:58:08.271Z,95525.13
2019-01-19T06:00:38.526Z,95538.47
2019-01-19T06:03:08.801Z,95538.30
2019-01-19T06:08:38.703Z,95540.19
2019-01-19T06:11:09.093Z,95538.08
2019-01-19T06:13:39.440Z,95545.59
2019-01-19T06:16:09.616Z,95547.75
2019-01-19T06:21:56.652Z,95547.08
2019-01-19T06:24:27.020Z,95548.73
2019-01-19T06:26:57.462Z,95547.12
2019-01-19T06:29:27.639Z,95550.22
2019-01-19T06:31:57.888Z,95554.78
2019-01-19T06:34:28.152Z,95554.65
2019-01-19T06:36:58.354Z,95547.79
2019-01-19T06:39:28.531Z,95548.84
2019-01-19T06:41:58.811Z,95547.48
2019-01-19T06:44:29.072Z,95544.53
2019-01-19T06:46:59.247Z,95549.92
2019-01-19T06:49:29.401Z,95551.95
2019-01-19T06:51:59.669Z,95555.77
2019-01-19T06:54:30.667Z,95551.05
2019-01-19T06:57:00.920Z,95554.38
2019-01-19T06:59:31.194Z,95551.80
2019-01-19T07:02:01.362Z,95551.45
2019-01-19T07:04:31.556Z,95555.38
2019-01-19T07:07:02.756Z,95559.23
2019-01-19T07:12:10.174Z,95562.14
2019-01-19T07:14:40.457Z,95556.83
2019-01-19T07:17:10.662Z,95557.68
2019-01-19T07:19:40.946Z,95560.64
2019-01-19T07:25:10.518Z,95567.89
2019-01-19T07:27:40.743Z,95568.30
2019-01-19T07:30:31.121Z,95569.38
2019-01-19T07:33:01.648Z,95565.02
2019-01-19T07:35:31.845Z,95578.25
2019-01-19T07:38:02.054Z,95570.86
2019-01-19T07:40:32.208Z,95571.09
2019-01-19T07:48:54.973Z,95583.72
2019-01-19T07:51:25.767Z,95582.52
2019-01-19T07:53:57.343Z,95584.91
2019-01-19T07:56:27.773Z,95591.20
2019-01-19T07:58:58.022Z,95590.03
2019-01-19T08:01:28.210Z,95598.27
2019-01-19T08:03:58.416Z,95600.63
2019-01-19T08:06:28.700Z,95603.34
2019-01-19T08:14:35.649Z,95611.63
2019-01-19T08:17:06.045Z,95608.92
2019-01-19T08:19:36.226Z,95610.13
2019-01-19T08:22:06.495Z,95617.16
2019-01-19T08:24:36.801Z,95612.51
2019-01-19T08:27:07.016Z,95606.17
2019-01-19T08:29:37.237Z,95609.17
2019-01-19T08:32:07.555Z,95622.79
2019-01-19T08:34:37.862Z,95623.05
2019-01-19T08:37:08.066Z,95618.02
2019-01-19T08:39:38.366Z,95618.73
2019-01-19T08:42:08.764Z,95620.41
2019-01-19T08:44:39.090Z,95622.55
2019-01-19T08:47:09.328Z,95625.91
2019-01-19T08:49:39.518Z,95632.67
2019-01-19T08:52:09.798Z,95633.73
2019-01-19T08:54:40.076Z,95628.41
2019-01-19T08:57:10.240Z,95621.55
2019-01-19T08:59:47.582Z,95620.39
2019-01-19T09:02:17.869Z,95619.91
2019-01-19T09:04:48.032Z,95615.64
2019-01-19T09:07:18.303Z,95612.64
2019-01-19T09:09:48.622Z,95612.04
2019-01-19T09:12:18.839Z,95610.98
2019-01-19T09:14:49.030Z,95606.58
2019-01-19T09:17:19.338Z,95608.30
2019-01-19T09:19:49.629Z,95613.41
2019-01-19T09:22:19.816Z,95616.34
2019-01-19T09:24:50.117Z,95613.86
2019-01-19T09:27:20.465Z,95596.77
2019-01-19T09:29:50.733Z,95597.06
2019-01-19T09:32:21.102Z,95595.97
2019-01-19T09:34:51.296Z,95592.14
2019-01-19T09:37:21.572Z,95590.84
2019-01-19T09:39:51.774Z,95591.95
2019-01-19T09:42:22.067Z,95581.27
2019-01-19T09:44:52.337Z,95581.91
2019-01-19T09:47:22.514Z,95576.32
2019-01-19T09:49:52.707Z,95575.89
2019-01-19T09:52:22.971Z,95570.61
2019-01-19T09:54:53.280Z,95560.56
2019-01-19T09:57:23.462Z,95561.87
2019-01-19T10:02:29.800Z,95555.97
2019-01-19T10:07:56.837Z,95554.77
2019-01-19T10:10:27.139Z,95547.49
2019-01-19T10:12:57.380Z,95544.30
2019-01-19T10:15:27.655Z,95552.97
2019-01-19T10:23:42.755Z,95540.95
2019-01-19T10:26:12.949Z,95538.96
2019-01-19T10:31:43.994Z,95533.69
2019-01-19T10:34:14.457Z,95526.45
2019-01-19T10:36:44.638Z,95529.88
2019-01-19T10:39:14.829Z,95530.72
2019-01-19T10:41:45.091Z,95532.25
2019-01-19T10:44:15.368Z,95534.81
2019-01-19T10:46:45.555Z,95531.08
2019-01-19T10:49:15.755Z,95531.00
2019-01-19T10:51:46.037Z,95524.08
2019-01-19T10:54:16.299Z,95518.68
2019-01-19T10:56:46.466Z,95520.73
2019-01-19T10:59:16.662Z,95516.84
2019-01-19T11:01:46.970Z,95511.19
2019-01-19T11:04:17.174Z,95505.92
2019-01-19T11:06:47.451Z,95504.08
2019-01-19T11:09:17.728Z,95496.80
2019-01-19T11:11:47.909Z,95488.34
2019-01-19T11:14:18.104Z,95490.18
2019-01-19T11:16:48.380Z,95489.83
2019-01-19T11:19:18.680Z,95490.77
2019-01-19T11:21:48.853Z,95491.90
2019-01-19T11:24:19.041Z,95489.92
2019-01-19T11:26:49.320Z,95488.69
2019-01-19T11:29:19.584Z,95483.84
2019-01-19T11:31:49.884Z,95486.53
2019-01-19T11:36:56.497Z,95487.67
2019-01-19T11:39:26.767Z,95483.47
2019-01-19T11:41:56.966Z,95483.50
2019-01-19T11:44:27.156Z,95480.60
2019-01-19T11:46:57.425Z,95478.48
2019-01-19T11:49:27.670Z,95467.04
2019-01-19T11:51:57.834Z,95461.56
2019-01-19T11:54:28.088Z,95463.95
2019-01-19T11:56:58.363Z,95455.89
2019-01-19T11:59:28.652Z,95464.22
2019-01-19T12:01:58.823Z,95457.77
2019-01-19T12:04:29.022Z,95452.75
2019-01-19T12:06:59.284Z,95457.06
2019-01-19T12:09:29.585Z,95454.86
2019-01-19T12:11:59.753Z,95462.97
2019-01-19T12:14:29.936Z,95461.39
2019-01-19T12:17:00.197Z,95457.34
2019-01-19T12:19:30.467Z,95460.45
2019-01-19T12:22:00.676Z,95467.72
2019-01-19T12:24:30.934Z,95456.98
2019-01-19T12:27:01.112Z,95462.00
2019-01-19T12:29:31.266Z,95462.28
2019-01-19T12:32:01.647Z,95462.30
2019-01-19T12:34:31.913Z,95460.72
2019-01-19T12:39:38.381Z,95467.59
2019-01-19T12:42:08.721Z,95459.40
2019-01-19T12:44:39.006Z,95466.79
2019-01-19T12:47:11.570Z,95466.78
2019-01-19T12:49:42.436Z,95471.26
2019-01-19T12:52:13.372Z,95468.54
2019-01-19T12:54:43.763Z,95463.81
2019-01-19T12:57:13.938Z,95460.73
2019-01-19T12:59:44.126Z,95457.52
2019-01-19T13:02:14.396Z,95456.20
2019-01-19T13:04:44.580Z,95457.28
2019-01-19T13:07:16.701Z,95457.80
2019-01-19T13:16:21.039Z,95457.45
2019-01-19T13:22:35.799Z,95458.75
2019-01-19T13:28:45.810Z,95460.06
2019-01-19T13:31:53.605Z,95452.14
2019-01-19T13:34:51.803Z,95447.19
2019-01-19T13:37:45.160Z,95453.19
2019-01-19T13:40:53.066Z,95455.48
2019-01-19T13:47:14.755Z,95451.31
2019-01-19T13:50:22.483Z,95451.22
2019-01-19T13:56:39.018Z,95463.38
2019-01-19T13:59:33.599Z,95459.88
2019-01-19T14:11:42.243Z,95460.52
2019-01-19T14:20:33.112Z,95456.38
2019-01-19T14:29:33.435Z,95454.81
2019-01-19T14:32:41.156Z,95451.31
2019-01-19T14:39:16.455Z,95443.16
2019-01-19T14:42:27.936Z,95445.68
2019-01-19T14:49:06.297Z,95448.34
2019-01-19T14:55:01.493Z,95440.16
2019-01-19T15:06:52.512Z,95457.29
2019-01-19T15:09:43.931Z,95460.14
2019-01-19T15:12:51.733Z,95449.08
2019-01-19T15:15:54.603Z,95453.00
2019-01-19T15:21:38.851Z,95447.89
2019-01-19T15:24:32.325Z,95448.53
2019-01-19T15:30:54.775Z,95446.11
2019-01-19T15:33:52.317Z,95440.72
2019-01-19T15:39:50.093Z,95444.17
2019-01-19T15:49:20.653Z,95450.35
2019-01-19T15:55:08.369Z,95458.75
2019-01-19T15:58:16.276Z,95463.80
2019-01-19T16:01:24.114Z,95457.41
2019-01-19T16:07:12.922Z,95454.02
2019-01-19T16:16:24.058Z,95461.61
2019-01-19T16:22:36.715Z,95469.72
2019-01-19T16:25:30.104Z,95475.34
2019-01-19T16:31:59.910Z,95471.19
2019-01-19T16:35:16.722Z,95477.23
2019-01-19T16:37:59.671Z,95480.34
2019-01-19T16:40:41.147Z,95481.70
2019-01-19T16:49:20.649Z,95487.00
2019-01-19T16:55:23.967Z,95494.80
2019-01-19T16:58:18.542Z,95487.48
2019-01-19T17:01:27.605Z,95498.53
2019-01-19T17:04:35.553Z,95489.56
2019-01-19T17:07:52.540Z,95486.86
2019-01-19T17:14:00.554Z,95495.23
2019-01-19T17:16:56.805Z,95263.94
2019-01-19T17:25:47.457Z,95498.19
2019-01-19T17:31:56.990Z,95493.20
2019-01-19T17:35:00.311Z,95496.27
2019-01-19T17:37:35.081Z,95492.59
2019-01-19T17:40:43.125Z,95496.32
2019-01-19T17:43:50.982Z,95497.05
2019-01-19T17:53:21.837Z,95501.89
2019-01-19T17:56:16.501Z,95513.13
2019-01-19T17:59:04.307Z,95508.47
2019-01-19T18:02:12.263Z,95514.33
2019-01-19T18:08:02.966Z,95512.77
2019-01-19T18:17:12.576Z,95516.02
2019-01-19T18:23:11.260Z,95512.77
2019-01-19T18:29:00.860Z,95510.67
2019-01-19T18:32:08.582Z,95510.59
2019-01-19T18:37:59.864Z,95516.32
2019-01-19T18:41:07.875Z,95515.14
2019-01-19T18:44:01.595Z,95524.69
2019-01-19T18:47:09.479Z,95523.92
2019-01-19T18:56:20.224Z,95517.77
2019-01-19T18:59:27.930Z,95521.63
2019-01-19T19:05:29.963Z,95527.83
2019-01-19T19:08:37.748Z,95535.05
2019-01-19T19:14:11.217Z,95533.73
2019-01-19T19:17:18.966Z,95531.14
2019-01-19T19:23:14.682Z,95536.11
2019-01-19T19:26:08.255Z,95538.44
2019-01-19T19:29:17.522Z,95533.73
2019-01-19T19:35:04.449Z,95544.56
2019-01-19T19:44:26.901Z,95544.31
2019-01-19T19:50:36.573Z,95546.08
2019-01-19T19:53:07.037Z,95554.95
2019-01-19T19:55:34.887Z,95554.23
2019-01-19T19:58:05.295Z,95555.80
2019-01-19T20:00:35.502Z,95560.86
2019-01-19T20:03:05.756Z,95561.11
2019-01-19T20:05:35.965Z,95561.04
2019-01-19T20:08:06.347Z,95554.84
2019-01-19T20:10:36.549Z,95557.94
2019-01-19T20:13:06.836Z,95556.33
2019-01-19T20:15:37.165Z,95555.02
2019-01-19T20:18:26.243Z,95560.28
2019-01-19T20:20:56.587Z,95558.75
2019-01-19T20:26:02.875Z,95555.86
2019-01-19T20:28:33.298Z,95567.80
2019-01-19T20:31:03.647Z,95552.09
2019-01-19T20:33:33.894Z,95558.41
2019-01-19T20:38:59.851Z,95560.15
2019-01-19T20:41:30.244Z,95560.88
2019-01-19T20:44:00.539Z,95563.77
2019-01-19T20:46:30.736Z,95566.09
2019-01-19T20:49:01.082Z,95564.45
2019-01-19T20:51:31.336Z,95560.28
2019-01-19T20:54:01.636Z,95565.70
2019-01-19T20:56:31.938Z,95561.30
2019-01-19T20:59:02.241Z,95563.16
2019-01-19T21:01:32.423Z,95560.28
2019-01-19T21:04:02.811Z,95558.16
2019-01-19T21:06:33.226Z,95562.52
2019-01-19T21:09:03.439Z,95561.59
2019-01-19T21:11:33.667Z,95559.80
2019-01-19T21:14:04.621Z,95556.75
2019-01-19T21:16:34.939Z,95555.99
2019-01-19T21:19:05.139Z,95559.43
2019-01-19T21:21:35.420Z,95560.73
2019-01-19T21:24:08.235Z,95555.09
2019-01-19T21:26:38.597Z,95546.43
2019-01-19T21:29:08.800Z,95546.80
2019-01-19T21:31:39.093Z,95554.50
2019-01-19T21:34:09.286Z,95557.64
2019-01-19T21:36:39.483Z,95561.08
2019-01-19T21:44:37.936Z,95551.10
2019-01-19T21:47:08.258Z,95550.59
2019-01-19T21:49:38.447Z,95551.14
2019-01-19T21:52:08.748Z,95552.04
2019-01-19T21:54:39.053Z,95548.00
2019-01-19T21:57:09.239Z,95550.73
2019-01-19T21:59:39.420Z,95545.80
2019-01-19T22:02:09.763Z,95543.72
2019-01-19T22:04:40.040Z,95539.38
2019-01-19T22:07:10.207Z,95540.94
2019-01-19T22:09:40.519Z,95544.85
2019-01-19T22:12:10.831Z,95534.83
2019-01-19T22:14:41.118Z,95536.41
2019-01-19T22:17:11.417Z,95532.83
2019-01-19T22:19:41.805Z,95537.77
2019-01-19T22:22:12.049Z,95539.84
2019-01-19T22:24:42.312Z,95532.71
2019-01-19T22:30:14.682Z,95531.60
2019-01-19T22:32:44.966Z,95526.89
2019-01-19T22:35:15.330Z,95521.97
2019-01-19T22:37:45.631Z,95517.77
2019-01-19T22:40:17.682Z,95512.59
2019-01-19T22:42:47.984Z,95511.35
2019-01-19T22:45:18.379Z,95524.67
2019-01-19T22:47:48.655Z,95521.25
2019-01-19T22:50:19.008Z,95527.38
2019-01-19T22:52:49.283Z,95521.20
2019-01-19T22:55:19.561Z,95523.86
2019-01-19T22:57:49.835Z,95516.98
2019-01-19T23:05:50.966Z,95505.88
2019-01-19T23:11:15.506Z,95517.41
2019-01-19T23:13:45.892Z,95511.25
2019-01-19T23:16:16.247Z,95510.17
2019-01-19T23:18:46.566Z,95503.45
2019-01-19T23:21:16.839Z,95505.02
2019-01-19T23:23:47.107Z,95502.69
2019-01-19T23:26:17.751Z,95502.23
2019-01-19T23:28:48.017Z,95495.30
2019-01-19T23:31:18.288Z,95498.08
2019-01-19T23:33:48.480Z,95496.25
2019-01-19T23:36:18.774Z,95487.63
2019-01-19T23:38:48.963Z,95491.16
2019-01-19T23:41:19.235Z,95485.98
2019-01-19T23:43:49.517Z,95484.69
2019-01-19T23:46:19.775Z,95485.20
2019-01-19T23:48:49.974Z,95476.84
2019-01-19T23:51:20.312Z,95483.64
2019-01-19T23:53:50.598Z,95486.52
2019-01-19T23:56:20.849Z,95477.41
2019-01-19T23:58:51.033Z,95481.70
